Time;durP1;ratioP1;P1;durP2;ratioP2;P2;SDS_P1;SDS_P2;PMS_P1;PMS_P2;Temp;Humidity;BMP_temperature;BMP_pressure;BME280_temperature;BME280_humidity;BME280_pressure;Samples;Min_cycle;Max_cycle;Signal;HPM_P1;HPM_P2
2021/11/27 00:00:29;;;;;;;9.35;8.05;;;7.00;88.80;;;;;;5091443;28;20392;-77
2021/11/27 00:02:55;;;;;;;10.50;8.57;;;7.00;88.70;;;;;;5091574;28;20029;-78
2021/11/27 00:05:22;;;;;;;9.73;8.10;;;7.00;88.90;;;;;;5091584;28;20152;-78
2021/11/27 00:07:50;;;;;;;9.95;8.35;;;7.00;88.90;;;;;;5091736;28;20016;-78
2021/11/27 00:10:18;;;;;;;9.38;7.82;;;7.00;88.90;;;;;;5091385;28;20479;-78
2021/11/27 00:12:46;;;;;;;10.32;8.40;;;7.00;89.00;;;;;;5091494;28;20035;-78
2021/11/27 00:15:12;;;;;;;11.27;8.52;;;7.00;89.10;;;;;;5091524;28;20032;-78
2021/11/27 00:17:38;;;;;;;9.27;7.95;;;7.00;89.10;;;;;;5088550;28;20036;-78
2021/11/27 00:20:07;;;;;;;10.88;9.00;;;7.00;89.00;;;;;;5091407;28;20029;-78
2021/11/27 00:22:33;;;;;;;10.73;8.70;;;7.00;89.00;;;;;;5091523;28;20024;-80
2021/11/27 00:24:58;;;;;;;11.50;9.02;;;7.00;88.90;;;;;;5091348;28;20024;-77
2021/11/27 00:27:26;;;;;;;11.48;9.55;;;7.00;88.90;;;;;;5091326;28;20086;-79
2021/11/27 00:29:52;;;;;;;10.88;8.40;;;6.90;88.90;;;;;;5091323;28;20024;-78
2021/11/27 00:32:18;;;;;;;13.00;10.15;;;7.00;89.00;;;;;;5091240;28;20020;-78
2021/11/27 00:34:44;;;;;;;11.43;9.52;;;6.90;88.80;;;;;;5091458;28;20398;-77
2021/11/27 00:37:09;;;;;;;11.13;9.07;;;6.90;88.80;;;;;;5094815;28;20024;-79
2021/11/27 00:39:35;;;;;;;10.10;8.50;;;6.90;88.90;;;;;;5094774;28;20385;-79
2021/11/27 00:42:01;;;;;;;10.80;8.68;;;6.90;88.80;;;;;;5094833;28;20024;-78
2021/11/27 00:44:27;;;;;;;9.63;8.02;;;6.80;88.80;;;;;;5096125;28;20024;-78
2021/11/27 00:46:52;;;;;;;9.85;7.80;;;6.80;88.80;;;;;;5095015;28;20074;-78
2021/11/27 00:49:18;;;;;;;9.77;7.43;;;6.80;88.80;;;;;;5094612;28;20028;-78
2021/11/27 00:51:44;;;;;;;8.55;7.43;;;6.80;88.60;;;;;;5094836;28;20036;-78
2021/11/27 00:54:11;;;;;;;8.88;7.32;;;6.80;88.50;;;;;;5091665;28;20031;-78
2021/11/27 00:56:36;;;;;;;7.88;6.55;;;6.80;88.50;;;;;;5094675;28;20028;-78
2021/11/27 00:59:02;;;;;;;9.65;7.45;;;6.80;88.50;;;;;;5094377;28;20373;-78
2021/11/27 01:04:50;;;;;;;8.90;6.90;;;6.80;88.50;;;;;;5095943;28;20115;-78
2021/11/27 01:07:16;;;;;;;10.93;6.95;;;6.70;88.40;;;;;;5094260;28;20056;-78
2021/11/27 01:09:42;;;;;;;10.15;7.43;;;6.70;88.40;;;;;;5094246;28;20058;-78
2021/11/27 01:12:08;;;;;;;8.60;6.50;;;6.70;88.40;;;;;;5094292;28;20024;-78
2021/11/27 01:14:35;;;;;;;9.18;6.60;;;6.60;88.40;;;;;;5094264;28;20051;-78
2021/11/27 01:17:06;;;;;;;10.02;6.70;;;6.60;88.30;;;;;;5094167;28;20024;-78
2021/11/27 01:19:35;;;;;;;9.13;7.35;;;6.50;88.20;;;;;;5093921;28;20119;-77
2021/11/27 01:22:08;;;;;;;9.05;6.53;;;6.50;88.30;;;;;;5094066;28;20059;-79
2021/11/27 01:24:34;;;;;;;10.52;7.32;;;6.40;88.40;;;;;;5091659;28;20038;-78
2021/11/27 01:27:00;;;;;;;10.38;7.20;;;6.40;88.40;;;;;;5094346;28;20554;-78
2021/11/27 01:29:27;;;;;;;9.70;7.28;;;6.30;88.40;;;;;;5093988;28;20028;-78
2021/11/27 01:31:52;;;;;;;10.15;6.93;;;6.30;88.60;;;;;;5093883;28;20021;-78
2021/11/27 01:34:18;;;;;;;11.27;7.13;;;6.20;88.70;;;;;;5093688;28;20084;-78
2021/11/27 01:36:44;;;;;;;10.18;6.78;;;6.20;88.80;;;;;;5093722;28;20021;-77
2021/11/27 01:39:11;;;;;;;11.15;6.88;;;6.20;88.90;;;;;;5076635;28;20047;-77
2021/11/27 01:41:39;;;;;;;9.07;6.03;;;6.20;88.90;;;;;;5093659;28;20121;-77
2021/11/27 01:44:05;;;;;;;11.05;6.18;;;6.10;88.90;;;;;;5093519;28;20028;-77
2021/11/27 01:46:31;;;;;;;8.43;5.57;;;6.10;89.00;;;;;;5093075;28;20024;-77
2021/11/27 01:48:57;;;;;;;7.60;5.75;;;6.00;89.00;;;;;;5094447;28;20059;-77
2021/11/27 01:51:23;;;;;;;9.57;5.30;;;6.00;89.00;;;;;;5094809;28;20055;-77
2021/11/27 01:53:56;;;;;;;8.52;5.63;;;6.00;89.00;;;;;;5090500;28;20040;-78
2021/11/27 01:56:31;;;;;;;6.25;4.40;;;6.00;89.10;;;;;;5093508;28;20506;-77
2021/11/27 02:02:18;;;;;;;7.18;5.05;;;6.00;89.20;;;;;;5092075;28;20051;-78
2021/11/27 02:04:46;;;;;;;7.68;4.75;;;6.00;89.20;;;;;;5076619;28;20064;-78
2021/11/27 02:07:13;;;;;;;7.97;4.85;;;6.10;89.20;;;;;;5092966;28;20070;-78
2021/11/27 02:09:39;;;;;;;9.43;5.07;;;6.20;89.30;;;;;;5093044;28;20020;-78
2021/11/27 02:12:09;;;;;;;7.70;5.15;;;6.20;89.30;;;;;;5093012;28;20074;-78
2021/11/27 02:14:35;;;;;;;6.85;4.32;;;6.20;89.30;;;;;;5094327;28;20038;-77
2021/11/27 02:17:00;;;;;;;6.07;2.95;;;6.20;89.20;;;;;;5092973;28;20118;-78
2021/11/27 02:19:26;;;;;;;2.90;2.30;;;6.20;89.20;;;;;;5092803;28;20395;-78
2021/11/27 02:21:52;;;;;;;3.78;2.30;;;6.10;89.20;;;;;;5093200;28;20039;-78
2021/11/27 02:24:19;;;;;;;2.25;1.95;;;6.10;89.30;;;;;;5092775;28;20475;-78
2021/11/27 02:26:47;;;;;;;5.25;1.58;;;6.00;89.30;;;;;;5092775;28;20047;-78
2021/11/27 02:29:27;;;;;;;2.83;1.77;;;6.00;89.20;;;;;;5094072;28;20507;-78
2021/11/27 02:31:55;;;;;;;1.67;1.23;;;6.00;89.30;;;;;;5090022;28;20032;-78
2021/11/27 02:34:21;;;;;;;2.78;1.40;;;6.00;89.40;;;;;;5092626;28;20031;-78
2021/11/27 02:36:52;;;;;;;2.42;1.27;;;5.90;89.40;;;;;;5092490;28;20043;-78
2021/11/27 02:39:19;;;;;;;2.90;1.27;;;5.90;89.30;;;;;;5092288;28;20032;-78
2021/11/27 02:41:45;;;;;;;1.67;1.17;;;5.80;89.20;;;;;;5093643;28;20051;-78
2021/11/27 02:44:11;;;;;;;1.13;1.00;;;5.70;89.10;;;;;;5092295;28;20024;-78
2021/11/27 02:50:01;;;;;;;3.20;0.98;;;5.60;89.20;;;;;;5093707;28;20548;-78
2021/11/27 02:52:29;;;;;;;1.52;1.10;;;5.60;89.30;;;;;;5093600;28;20100;-78
2021/11/27 02:54:56;;;;;;;1.38;0.95;;;5.50;89.20;;;;;;5092328;28;20028;-78
2021/11/27 02:57:22;;;;;;;2.58;0.90;;;5.50;89.30;;;;;;5092151;28;20024;-78
2021/11/27 02:59:49;;;;;;;1.08;0.70;;;5.50;89.30;;;;;;5091287;28;20483;-78
2021/11/27 03:02:15;;;;;;;2.65;1.05;;;5.50;89.40;;;;;;5092068;28;20044;-78
2021/11/27 03:04:41;;;;;;;0.90;0.80;;;5.50;89.40;;;;;;5092119;28;20027;-77
2021/11/27 03:07:07;;;;;;;1.63;0.90;;;5.60;89.50;;;;;;5092098;28;20568;-78
2021/11/27 03:09:34;;;;;;;3.00;0.98;;;5.60;89.50;;;;;;5092136;28;20491;-78
2021/11/27 03:12:00;;;;;;;2.22;0.90;;;5.60;89.40;;;;;;5093234;28;20024;-78
2021/11/27 03:14:27;;;;;;;1.63;1.00;;;5.60;89.40;;;;;;5092009;28;20379;-78
2021/11/27 03:16:55;;;;;;;2.95;0.88;;;5.60;89.40;;;;;;5093676;28;20080;-78
2021/11/27 03:19:20;;;;;;;2.95;1.00;;;5.50;89.20;;;;;;5091864;28;20028;-78
2021/11/27 03:21:47;;;;;;;3.72;0.90;;;5.50;89.20;;;;;;5092118;28;20035;-78
2021/11/27 03:27:34;;;;;;;2.33;0.73;;;5.40;89.20;;;;;;5093558;28;20088;-77
2021/11/27 03:30:00;;;;;;;1.27;0.98;;;5.40;89.40;;;;;;5091823;28;20426;-77
2021/11/27 03:32:26;;;;;;;2.97;1.00;;;5.40;89.20;;;;;;5091834;28;20089;-78
2021/11/27 03:34:52;;;;;;;1.55;1.00;;;5.30;89.20;;;;;;5088922;28;20056;-77
2021/11/27 03:37:18;;;;;;;1.60;1.10;;;5.30;89.10;;;;;;5091820;28;20471;-77
2021/11/27 03:39:45;;;;;;;1.23;0.82;;;5.30;89.20;;;;;;5091532;28;20063;-77
2021/11/27 03:42:13;;;;;;;2.90;0.85;;;5.20;89.20;;;;;;5091726;28;20544;-77
2021/11/27 03:44:40;;;;;;;1.65;0.90;;;5.20;89.20;;;;;;5091686;28;20024;-77
2021/11/27 03:47:06;;;;;;;1.55;1.02;;;5.10;89.20;;;;;;5091726;28;20032;-78
2021/11/27 03:49:33;;;;;;;2.30;1.02;;;5.10;89.30;;;;;;5091925;28;20024;-78
2021/11/27 03:51:59;;;;;;;2.40;1.23;;;5.10;89.40;;;;;;5091731;28;20089;-78
2021/11/27 03:54:25;;;;;;;2.92;1.17;;;5.10;89.30;;;;;;5091611;28;20024;-78
2021/11/27 03:56:52;;;;;;;1.52;1.00;;;5.10;89.30;;;;;;5091496;28;20020;-78
2021/11/27 03:59:18;;;;;;;1.38;0.98;;;5.00;89.30;;;;;;5091503;28;20043;-78
2021/11/27 04:01:44;;;;;;;1.20;0.90;;;5.00;89.20;;;;;;5088685;28;20048;-78
2021/11/27 04:04:11;;;;;;;1.92;1.15;;;5.00;89.30;;;;;;5091525;28;20483;-78
2021/11/27 04:06:38;;;;;;;1.73;0.90;;;5.00;89.20;;;;;;5091598;28;20032;-78
2021/11/27 04:09:06;;;;;;;1.40;0.90;;;5.00;89.30;;;;;;5091484;28;20032;-78
2021/11/27 04:11:33;;;;;;;2.63;0.90;;;5.00;89.30;;;;;;5094368;28;20032;-78
2021/11/27 04:13:59;;;;;;;1.23;1.10;;;5.00;88.90;;;;;;5095376;28;20119;-77
2021/11/27 04:16:24;;;;;;;0.90;0.85;;;4.90;88.90;;;;;;5095234;28;20051;-78
2021/11/27 04:18:50;;;;;;;0.68;0.68;;;4.80;89.00;;;;;;5095207;28;20086;-78
2021/11/27 04:21:18;;;;;;;1.23;0.80;;;4.80;89.00;;;;;;5095180;28;20032;-78
2021/11/27 04:23:44;;;;;;;1.88;0.93;;;4.80;89.00;;;;;;5095025;28;20086;-78
2021/11/27 04:26:10;;;;;;;1.27;0.98;;;4.70;89.10;;;;;;5095199;28;20024;-78
2021/11/27 04:28:36;;;;;;;1.42;0.85;;;4.70;88.90;;;;;;5095058;28;20054;-78
2021/11/27 04:31:02;;;;;;;1.38;1.00;;;4.60;88.80;;;;;;5094943;28;20111;-78
2021/11/27 04:33:28;;;;;;;1.40;0.82;;;4.60;88.90;;;;;;5094895;28;20487;-78
2021/11/27 04:35:54;;;;;;;0.90;0.90;;;4.60;89.00;;;;;;5095232;28;20043;-78
2021/11/27 04:38:20;;;;;;;1.10;0.82;;;4.60;89.00;;;;;;5094795;28;20081;-78
2021/11/27 04:40:46;;;;;;;1.80;0.75;;;4.50;89.00;;;;;;5091845;28;20119;-78
2021/11/27 04:43:12;;;;;;;1.25;0.70;;;4.50;89.00;;;;;;5094750;28;20028;-78
2021/11/27 04:45:38;;;;;;;0.98;0.68;;;4.50;88.90;;;;;;5094671;28;20052;-78
2021/11/27 04:48:04;;;;;;;0.85;0.70;;;4.50;89.00;;;;;;5094669;28;20024;-78
2021/11/27 04:50:31;;;;;;;0.80;0.80;;;4.50;89.10;;;;;;5094570;28;20032;-78
2021/11/27 04:52:57;;;;;;;0.73;0.73;;;4.50;89.10;;;;;;5094500;28;20094;-78
2021/11/27 04:55:23;;;;;;;1.10;0.60;;;4.50;89.00;;;;;;5094561;28;20081;-77
2021/11/27 04:57:49;;;;;;;2.03;0.70;;;4.50;89.00;;;;;;5094385;28;20024;-78
2021/11/27 05:00:21;;;;;;;2.40;0.90;;;4.50;89.50;;;;;;5094412;28;20038;-78
2021/11/27 05:02:47;;;;;;;1.02;0.50;;;4.50;89.00;;;;;;5094259;28;20131;-77
2021/11/27 05:05:13;;;;;;;1.63;0.88;;;4.40;88.90;;;;;;5094425;28;20102;-77
2021/11/27 05:07:39;;;;;;;1.15;0.65;;;4.40;88.80;;;;;;5094239;28;20024;-77
2021/11/27 05:10:05;;;;;;;0.95;0.60;;;4.30;88.80;;;;;;5094343;28;20032;-77
2021/11/27 05:12:31;;;;;;;0.60;0.60;;;4.30;88.90;;;;;;5094077;28;20031;-77
2021/11/27 05:14:57;;;;;;;0.80;0.60;;;4.30;88.90;;;;;;5094212;28;20032;-78
2021/11/27 05:17:22;;;;;;;1.52;0.90;;;4.20;88.90;;;;;;5094157;28;20057;-77
2021/11/27 05:19:48;;;;;;;0.65;0.45;;;4.20;89.00;;;;;;5093946;28;20551;-76
2021/11/27 05:25:58;;;;;;;0.40;0.40;;;4.10;89.10;;;;;;5095373;28;20030;-76
2021/11/27 05:28:24;;;;;;;2.45;0.80;;;4.10;89.10;;;;;;5093861;28;20036;-77
2021/11/27 05:30:52;;;;;;;1.75;0.63;;;4.10;89.10;;;;;;5093737;28;20028;-77
2021/11/27 05:33:23;;;;;;;0.60;0.60;;;4.10;89.10;;;;;;5093793;28;20032;-77
2021/11/27 05:35:50;;;;;;;0.95;0.82;;;4.10;89.10;;;;;;5094998;28;20101;-77
2021/11/27 05:38:16;;;;;;;0.95;0.75;;;4.10;89.10;;;;;;5093741;28;20031;-77
2021/11/27 05:40:45;;;;;;;0.60;0.52;;;4.10;89.10;;;;;;5093609;28;20020;-78
2021/11/27 05:43:10;;;;;;;0.88;0.65;;;4.20;89.20;;;;;;5093534;28;20510;-77
2021/11/27 05:45:36;;;;;;;1.55;0.80;;;4.20;89.10;;;;;;5093555;28;20028;-78
2021/11/27 05:48:04;;;;;;;2.25;0.88;;;4.20;89.10;;;;;;5093473;28;20484;-78
2021/11/27 05:50:30;;;;;;;2.00;0.95;;;4.10;89.10;;;;;;5093532;28;20506;-78
2021/11/27 05:52:56;;;;;;;0.90;0.65;;;4.20;89.20;;;;;;5093660;28;20034;-78
2021/11/27 05:55:22;;;;;;;0.65;0.65;;;4.30;89.30;;;;;;5093246;28;20110;-78
2021/11/27 05:57:49;;;;;;;2.75;0.70;;;4.30;89.10;;;;;;5093361;28;20058;-78
2021/11/27 06:00:16;;;;;;;2.00;0.60;;;4.20;88.90;;;;;;5093226;28;20491;-77
2021/11/27 06:02:42;;;;;;;1.02;0.80;;;4.10;88.80;;;;;;5093060;28;20052;-77
2021/11/27 06:05:08;;;;;;;0.70;0.70;;;4.10;89.60;;;;;;5093149;28;20118;-77
2021/11/27 06:07:35;;;;;;;0.82;0.70;;;4.10;89.10;;;;;;5093027;28;20020;-77
2021/11/27 06:10:01;;;;;;;2.28;1.02;;;4.10;88.90;;;;;;5093043;28;20111;-78
2021/11/27 06:12:26;;;;;;;1.20;0.90;;;4.00;89.10;;;;;;5093075;28;20126;-78
2021/11/27 06:14:52;;;;;;;1.67;0.90;;;4.10;89.20;;;;;;5092948;28;20502;-78
2021/11/27 06:17:17;;;;;;;1.35;1.00;;;4.00;89.10;;;;;;5092914;28;20109;-78
2021/11/27 06:19:44;;;;;;;1.92;1.00;;;4.10;89.20;;;;;;5092786;28;20036;-77
2021/11/27 06:22:10;;;;;;;1.80;0.90;;;4.00;89.10;;;;;;5092838;28;20032;-78
2021/11/27 06:24:36;;;;;;;0.90;0.88;;;4.00;89.10;;;;;;5092710;28;20089;-78
2021/11/27 06:27:01;;;;;;;1.38;0.80;;;4.00;89.00;;;;;;5093249;28;20499;-78
2021/11/27 06:29:28;;;;;;;1.75;1.10;;;4.00;89.00;;;;;;5092690;28;20510;-78
2021/11/27 06:31:54;;;;;;;1.00;1.00;;;3.90;89.00;;;;;;5092658;28;20034;-78
2021/11/27 06:34:19;;;;;;;1.65;1.23;;;3.90;89.10;;;;;;5092488;28;20028;-77
2021/11/27 06:36:45;;;;;;;1.10;1.02;;;3.90;89.20;;;;;;5093993;28;20483;-78
2021/11/27 06:39:11;;;;;;;2.22;1.23;;;4.00;89.30;;;;;;5092484;28;20028;-78
2021/11/27 06:41:36;;;;;;;1.05;0.95;;;4.00;89.20;;;;;;5092463;28;20177;-78
2021/11/27 06:44:02;;;;;;;1.33;1.17;;;4.00;89.20;;;;;;5092431;28;20059;-77
2021/11/27 06:46:28;;;;;;;1.20;1.10;;;4.00;89.20;;;;;;5092395;28;20531;-78
2021/11/27 06:48:53;;;;;;;1.40;1.30;;;4.00;89.10;;;;;;5092395;28;20028;-76
2021/11/27 06:51:19;;;;;;;1.38;1.27;;;4.00;88.90;;;;;;5092409;28;20408;-76
2021/11/27 06:53:44;;;;;;;1.73;1.20;;;4.00;89.10;;;;;;5092273;28;20028;-77
2021/11/27 06:56:10;;;;;;;1.20;1.10;;;3.90;89.10;;;;;;5092193;28;20028;-77
2021/11/27 06:58:36;;;;;;;1.25;1.15;;;4.00;89.20;;;;;;5092825;28;20518;-76
2021/11/27 07:01:02;;;;;;;1.10;1.00;;;4.00;89.20;;;;;;5093232;28;20044;-77
2021/11/27 07:03:28;;;;;;;1.50;1.40;;;4.00;89.20;;;;;;5093615;28;20044;-77
2021/11/27 07:05:53;;;;;;;1.40;1.30;;;4.00;89.30;;;;;;5092175;28;20020;-77
2021/11/27 07:08:19;;;;;;;1.35;1.25;;;4.00;89.10;;;;;;5093439;28;20058;-77
2021/11/27 07:10:45;;;;;;;1.65;1.50;;;4.00;89.00;;;;;;5091966;28;20028;-77
2021/11/27 07:13:12;;;;;;;2.42;2.20;;;4.00;89.10;;;;;;5091952;28;20024;-77
2021/11/27 07:15:38;;;;;;;2.00;1.80;;;4.00;89.20;;;;;;5093565;28;20051;-77
2021/11/27 07:18:04;;;;;;;1.90;1.70;;;4.00;89.10;;;;;;5093308;28;20032;-77
2021/11/27 07:20:29;;;;;;;2.10;1.90;;;4.00;89.00;;;;;;5091968;28;20031;-76
2021/11/27 07:22:55;;;;;;;2.15;1.90;;;4.00;89.00;;;;;;5091897;28;20032;-78
2021/11/27 07:25:21;;;;;;;1.80;1.70;;;4.00;89.10;;;;;;5091873;28;20024;-78
2021/11/27 07:27:46;;;;;;;2.20;2.00;;;3.90;89.00;;;;;;5091951;28;20135;-77
2021/11/27 07:30:12;;;;;;;2.15;1.95;;;3.90;89.00;;;;;;5091873;28;20030;-77
2021/11/27 07:32:38;;;;;;;5.38;3.28;;;3.90;89.10;;;;;;5092981;28;20036;-77
2021/11/27 07:35:04;;;;;;;4.53;3.15;;;3.90;89.10;;;;;;5091811;28;20043;-76
2021/11/27 07:37:30;;;;;;;2.90;2.42;;;3.90;89.10;;;;;;5091881;28;20444;-76
2021/11/27 07:39:55;;;;;;;3.03;2.58;;;3.90;89.00;;;;;;5092926;28;20106;-76
2021/11/27 07:42:21;;;;;;;2.28;2.00;;;3.90;89.20;;;;;;5091783;28;20024;-77
2021/11/27 07:44:47;;;;;;;2.85;2.20;;;3.90;89.10;;;;;;5091666;28;20391;-76
2021/11/27 07:47:13;;;;;;;3.15;2.42;;;3.90;89.00;;;;;;5097150;28;20099;-76
2021/11/27 07:49:41;;;;;;;3.30;2.50;;;3.90;89.10;;;;;;5095628;28;20127;-77
2021/11/27 07:52:07;;;;;;;2.67;2.38;;;3.90;89.10;;;;;;5095737;28;20391;-76
2021/11/27 07:58:10;;;;;;;2.78;2.08;;;3.90;88.90;;;;;;5097050;28;20077;-76
2021/11/27 08:00:36;;;;;;;2.70;2.20;;;3.80;88.80;;;;;;5096821;28;20111;-76
2021/11/27 08:03:02;;;;;;;2.38;1.90;;;3.70;88.80;;;;;;5095532;28;20074;-76
2021/11/27 08:05:28;;;;;;;2.47;2.08;;;3.70;89.00;;;;;;5095422;28;20189;-77
2021/11/27 08:07:53;;;;;;;2.38;2.08;;;3.70;89.10;;;;;;5095551;28;20031;-76
2021/11/27 08:10:19;;;;;;;2.80;2.28;;;3.70;89.20;;;;;;5095607;28;20056;-75
2021/11/27 08:12:45;;;;;;;3.30;2.47;;;3.70;89.20;;;;;;5095316;28;20480;-75
2021/11/27 08:15:11;;;;;;;2.50;2.30;;;3.80;89.10;;;;;;5095083;28;20028;-75
2021/11/27 08:17:39;;;;;;;4.50;3.63;;;3.80;89.10;;;;;;5095328;28;20043;-74
2021/11/27 08:20:06;;;;;;;4.30;3.03;;;3.70;89.10;;;;;;5095157;28;20063;-75
2021/11/27 08:22:32;;;;;;;12.25;4.10;;;3.80;89.10;;;;;;5096410;28;20074;-75
2021/11/27 08:24:58;;;;;;;9.98;6.38;;;3.80;89.10;;;;;;5095092;28;20028;-74
2021/11/27 08:27:27;;;;;;;4.88;4.07;;;3.80;89.20;;;;;;5094985;28;20028;-75
2021/11/27 08:29:55;;;;;;;4.65;3.42;;;3.90;89.30;;;;;;5095375;28;20024;-75
2021/11/27 08:32:21;;;;;;;4.65;3.47;;;4.00;89.20;;;;;;5096239;28;20036;-77
2021/11/27 08:34:47;;;;;;;4.28;3.10;;;3.90;89.10;;;;;;5096108;28;20028;-75
2021/11/27 08:40:35;;;;;;;4.65;3.03;;;4.00;89.10;;;;;;5096098;28;20097;-74
2021/11/27 08:43:01;;;;;;;3.20;2.70;;;4.00;89.10;;;;;;5094856;28;20028;-74
2021/11/27 08:45:27;;;;;;;5.18;3.20;;;4.00;89.00;;;;;;5096020;28;20028;-75
2021/11/27 08:47:53;;;;;;;4.20;3.05;;;4.10;89.10;;;;;;5095862;28;20098;-75
2021/11/27 08:50:20;;;;;;;3.15;2.75;;;4.10;88.90;;;;;;5095943;28;20115;-74
2021/11/27 08:52:46;;;;;;;3.92;3.10;;;4.00;88.70;;;;;;5094691;28;20081;-76
2021/11/27 08:55:12;;;;;;;3.05;2.75;;;4.00;88.70;;;;;;5094453;28;20028;-74
2021/11/27 08:57:38;;;;;;;4.20;3.08;;;4.00;88.80;;;;;;5094683;28;20023;-75
2021/11/27 09:00:06;;;;;;;4.18;3.50;;;4.00;88.80;;;;;;5095587;28;20028;-74
2021/11/27 09:02:32;;;;;;;3.63;3.10;;;3.90;88.60;;;;;;5094140;28;20403;-75
2021/11/27 09:04:58;;;;;;;3.80;2.85;;;3.90;88.80;;;;;;5094174;28;20028;-76
2021/11/27 09:07:23;;;;;;;3.40;2.70;;;3.90;88.80;;;;;;5095872;28;20028;-74
2021/11/27 09:09:49;;;;;;;3.83;3.00;;;3.90;88.90;;;;;;5094224;28;20032;-75
2021/11/27 09:15:37;;;;;;;3.30;2.60;;;3.90;88.80;;;;;;5095546;28;20093;-74
2021/11/27 09:18:02;;;;;;;3.97;2.80;;;3.90;88.70;;;;;;5094023;28;20475;-74
2021/11/27 09:20:32;;;;;;;3.40;2.85;;;3.80;89.10;;;;;;5094142;28;20467;-75
2021/11/27 09:22:59;;;;;;;3.08;2.20;;;3.80;88.80;;;;;;5094886;28;20063;-73
2021/11/27 09:25:25;;;;;;;3.50;2.33;;;3.90;89.00;;;;;;5093829;28;20024;-74
2021/11/27 09:27:51;;;;;;;3.28;2.05;;;3.90;88.90;;;;;;5093821;28;20475;-75
2021/11/27 09:30:18;;;;;;;3.83;2.67;;;3.90;88.90;;;;;;5094110;28;20092;-75
2021/11/27 09:32:43;;;;;;;4.10;2.13;;;3.90;88.90;;;;;;5093801;28;20488;-75
2021/11/27 09:35:09;;;;;;;3.13;2.00;;;4.00;88.90;;;;;;5093765;28;20032;-75
2021/11/27 09:37:35;;;;;;;4.20;2.65;;;4.00;89.50;;;;;;5093678;28;20028;-75
2021/11/27 09:40:04;;;;;;;2.45;2.03;;;4.00;88.80;;;;;;5093443;28;20032;-75
2021/11/27 09:42:30;;;;;;;6.05;2.10;;;4.00;88.70;;;;;;5093581;28;20080;-76
2021/11/27 09:44:55;;;;;;;1.77;1.60;;;4.00;88.80;;;;;;5093417;28;20535;-75
2021/11/27 09:47:21;;;;;;;1.98;1.73;;;4.10;88.90;;;;;;5093619;28;20117;-75
2021/11/27 09:49:49;;;;;;;2.92;1.80;;;4.10;88.70;;;;;;5094735;28;20395;-75
2021/11/27 09:52:14;;;;;;;2.65;1.80;;;4.10;88.80;;;;;;5093336;28;20032;-75
2021/11/27 09:54:41;;;;;;;1.73;1.63;;;4.10;88.60;;;;;;5093331;28;20046;-75
2021/11/27 09:57:09;;;;;;;3.10;2.00;;;4.10;88.70;;;;;;5093345;28;20020;-75
2021/11/27 09:59:37;;;;;;;2.25;1.70;;;4.20;88.80;;;;;;5093180;28;20428;-75
2021/11/27 10:02:06;;;;;;;2.13;1.92;;;4.20;88.60;;;;;;5093003;28;20119;-74
2021/11/27 10:04:33;;;;;;;1.77;1.67;;;4.30;89.30;;;;;;5093180;28;20023;-75
2021/11/27 10:06:59;;;;;;;2.85;1.70;;;4.30;88.70;;;;;;5094372;28;20035;-75
2021/11/27 10:09:27;;;;;;;1.65;1.50;;;4.30;88.50;;;;;;5092586;28;20033;-75
2021/11/27 10:11:54;;;;;;;2.63;1.60;;;4.30;88.50;;;;;;5093055;28;20089;-74
2021/11/27 10:14:21;;;;;;;2.05;1.40;;;4.40;88.50;;;;;;5094270;28;20027;-74
2021/11/27 10:16:59;;;;;;;2.67;1.92;;;4.40;88.50;;;;;;5092925;28;20082;-74
2021/11/27 10:19:55;;;;;;;2.47;1.80;;;4.40;88.30;;;;;;5094070;28;20364;-74
2021/11/27 10:26:01;;;;;;;1.85;1.55;;;4.40;88.40;;;;;;5094084;28;20069;-73
2021/11/27 10:28:28;;;;;;;;;;;4.40;88.50;;;;;;5093096;28;20103;-74
2021/11/27 10:31:02;;;;;;;2.00;1.80;;;4.40;88.50;;;;;;5092634;28;19927;-74
2021/11/27 10:33:30;;;;;;;2.47;1.52;;;4.40;88.50;;;;;;5092590;28;20027;-74
2021/11/27 10:36:04;;;;;;;3.05;2.15;;;4.40;88.50;;;;;;5092394;28;20012;-74
2021/11/27 10:38:46;;;;;;;2.42;1.83;;;4.40;88.40;;;;;;5092243;28;20008;-74
2021/11/27 10:41:14;;;;;;;2.67;1.80;;;4.40;88.20;;;;;;5092390;28;20025;-75
2021/11/27 10:44:05;;;;;;;3.33;1.98;;;4.40;88.40;;;;;;5092418;28;20012;-74
2021/11/27 10:46:37;;;;;;;3.28;1.95;;;4.40;88.50;;;;;;5092711;28;20008;-74
2021/11/27 10:49:05;;;;;;;4.25;2.15;;;4.40;89.10;;;;;;5093903;28;20027;-74
2021/11/27 10:51:32;;;;;;;4.25;2.20;;;4.40;88.40;;;;;;5092277;28;20012;-74
2021/11/27 10:54:04;;;;;;;5.25;2.85;;;4.40;89.10;;;;;;5092601;28;20020;-75
2021/11/27 10:56:44;;;;;;;5.22;2.63;;;4.40;88.60;;;;;;5092347;28;20012;-73
2021/11/27 10:59:12;;;;;;;5.35;2.65;;;4.40;88.60;;;;;;5092201;28;20158;-74
2021/11/27 11:02:04;;;;;;;5.07;2.50;;;4.40;88.70;;;;;;5092045;28;20488;-74
2021/11/27 11:04:30;;;;;;;5.75;2.75;;;4.50;88.80;;;;;;5092091;28;20073;-74
2021/11/27 11:07:22;;;;;;;4.40;2.40;;;4.50;88.90;;;;;;5092158;28;20126;-74
2021/11/27 11:10:12;;;;;;;5.10;2.85;;;4.60;88.80;;;;;;5092011;28;20016;-75
2021/11/27 11:12:39;;;;;;;6.13;3.40;;;4.70;88.90;;;;;;5092028;28;20032;-74
2021/11/27 11:15:20;;;;;;;6.88;3.63;;;4.70;88.80;;;;;;5091680;28;20020;-75
2021/11/27 11:17:49;;;;;;;6.63;4.20;;;4.80;88.80;;;;;;5091896;28;20066;-75
2021/11/27 11:20:27;;;;;;;7.70;4.53;;;4.80;88.90;;;;;;5090877;28;20024;-75
2021/11/27 11:23:00;;;;;;;8.15;5.30;;;5.00;89.00;;;;;;5088845;28;20032;-74
2021/11/27 11:25:26;;;;;;;9.68;5.85;;;5.10;88.90;;;;;;5093235;28;20016;-75
2021/11/27 11:27:52;;;;;;;10.80;6.60;;;5.20;88.90;;;;;;5091857;28;20023;-75
2021/11/27 11:30:35;;;;;;;16.70;8.98;;;5.30;88.70;;;;;;5091690;28;20024;-75
2021/11/27 11:33:01;;;;;;;15.88;8.60;;;5.40;88.70;;;;;;5091687;28;20028;-75
2021/11/27 11:35:27;;;;;;;19.70;10.25;;;5.40;88.50;;;;;;5095418;28;20035;-74
2021/11/27 11:37:53;;;;;;;19.38;9.55;;;5.40;88.60;;;;;;5101737;28;20024;-75
2021/11/27 11:40:19;;;;;;;18.65;10.85;;;5.40;88.60;;;;;;5100432;28;20020;-74
2021/11/27 11:42:44;;;;;;;21.48;10.85;;;5.40;88.70;;;;;;5101196;28;20066;-75
2021/11/27 11:45:10;;;;;;;17.23;9.40;;;5.40;88.70;;;;;;5099816;28;20040;-74
2021/11/27 11:47:36;;;;;;;17.35;10.60;;;5.50;88.80;;;;;;5094184;28;20024;-75
2021/11/27 11:50:06;;;;;;;19.98;10.85;;;5.60;88.80;;;;;;5094816;28;20520;-75
2021/11/27 11:52:41;;;;;;;18.98;9.68;;;5.60;88.60;;;;;;5092839;28;20122;-74
2021/11/27 11:55:15;;;;;;;16.52;9.07;;;5.70;88.60;;;;;;5092910;28;20479;-75
2021/11/27 11:57:54;;;;;;;;;;;5.80;88.50;;;;;;5094853;28;20047;-75
2021/11/27 12:00:28;;;;;;;19.73;9.90;;;6.00;88.60;;;;;;5092320;28;19915;-75
2021/11/27 12:03:05;;;;;;;16.38;9.25;;;6.00;88.30;;;;;;5092456;28;20123;-75
2021/11/27 12:05:33;;;;;;;17.30;8.90;;;6.10;88.10;;;;;;5093730;28;20024;-74
2021/11/27 12:08:01;;;;;;;19.63;9.73;;;6.10;88.00;;;;;;5092665;28;20020;-74
2021/11/27 12:10:26;;;;;;;15.13;8.93;;;6.20;88.10;;;;;;5092525;28;20023;-74
2021/11/27 12:13:07;;;;;;;17.08;8.82;;;6.30;88.10;;;;;;5092650;28;20032;-74
2021/11/27 12:15:34;;;;;;;15.23;8.60;;;6.40;88.00;;;;;;5092257;28;20043;-74
2021/11/27 12:18:20;;;;;;;17.98;8.90;;;6.40;87.80;;;;;;5092433;28;20539;-75
2021/11/27 12:20:56;;;;;;;19.95;9.40;;;6.50;87.80;;;;;;5092343;28;20028;-74
2021/11/27 12:23:28;;;;;;;19.27;9.45;;;6.50;87.70;;;;;;5093053;28;20024;-74
2021/11/27 12:26:09;;;;;;;20.70;9.85;;;6.60;87.60;;;;;;5093493;28;20480;-74
2021/11/27 12:28:48;;;;;;;21.33;9.60;;;6.50;86.90;;;;;;5093691;28;20051;-74
2021/11/27 12:31:16;;;;;;;15.20;8.88;;;6.50;87.10;;;;;;5094039;28;20031;-75
2021/11/27 12:34:02;;;;;;;19.63;8.80;;;6.40;87.00;;;;;;5097624;28;20016;-74
2021/11/27 12:36:28;;;;;;;18.42;9.77;;;6.40;87.20;;;;;;5095412;28;20035;-74
2021/11/27 12:38:55;;;;;;;16.92;8.52;;;6.50;87.20;;;;;;5095092;28;20483;-74
2021/11/27 12:41:26;;;;;;;19.05;8.82;;;6.50;87.10;;;;;;5095022;28;20027;-74
2021/11/27 12:44:14;;;;;;;18.35;9.00;;;6.50;87.20;;;;;;5094914;28;20016;-74
2021/11/27 12:47:11;;;;;;;18.33;8.13;;;6.60;87.20;;;;;;5094837;28;20036;-74
2021/11/27 12:49:37;;;;;;;14.90;7.80;;;6.60;87.00;;;;;;5094802;28;20123;-74
2021/11/27 12:52:15;;;;;;;18.48;7.97;;;6.50;86.70;;;;;;5094883;28;20086;-74
2021/11/27 12:54:54;;;;;;;18.73;8.40;;;6.50;86.40;;;;;;5094815;28;20077;-73
2021/11/27 12:57:19;;;;;;;23.38;8.07;;;6.40;86.30;;;;;;5094702;28;20035;-74
2021/11/27 12:59:47;;;;;;;16.02;8.07;;;6.30;86.40;;;;;;5094627;28;20028;-74
2021/11/27 13:02:17;;;;;;;17.13;8.07;;;6.30;86.30;;;;;;5094403;28;20044;-74
2021/11/27 13:04:45;;;;;;;16.48;7.82;;;6.30;86.50;;;;;;5094552;28;20038;-74
2021/11/27 13:07:12;;;;;;;15.68;7.50;;;6.30;86.70;;;;;;5094403;28;20020;-74
2021/11/27 13:09:38;;;;;;;18.33;7.43;;;6.20;86.80;;;;;;5094320;28;20028;-74
2021/11/27 13:12:12;;;;;;;13.93;7.15;;;6.30;87.00;;;;;;5094192;28;20028;-73
2021/11/27 13:14:39;;;;;;;15.70;6.93;;;6.30;87.00;;;;;;5094198;28;20027;-74
2021/11/27 13:17:16;;;;;;;14.65;6.72;;;6.40;87.00;;;;;;5095325;28;20032;-74
2021/11/27 13:19:44;;;;;;;13.85;6.35;;;6.30;86.80;;;;;;5094102;28;20383;-73
2021/11/27 13:22:13;;;;;;;16.38;6.25;;;6.40;86.70;;;;;;5094015;28;20020;-73
2021/11/27 13:24:55;;;;;;;13.48;5.63;;;6.40;86.50;;;;;;5094037;28;20392;-72
2021/11/27 13:27:26;;;;;;;13.13;5.88;;;6.30;86.10;;;;;;5094043;28;20361;-73
2021/11/27 13:30:04;;;;;;;18.98;7.38;;;6.30;85.30;;;;;;5093907;28;20028;-73